Hyundai New York — 9V2196 — position and weather

sailwx.info

Track history (hours):
 
Tides and Currents Weather Stations Pressure Air Temp Water Temp Dewpoint Dewpoint Depression Visibility Wind Speed Wind Dir Waves Ship Positions

Hyundai New York

Last reported at 2018-Jan-12 12:49 UTC. Time now 2018-Jan-23 00:07 UTC.
Position N 31°22' E 121°35'.
Warning: this ship's position is 10 days out of date.

Length 293 m; draft 8.5 m.

Type: Ship (hazmat cat A). MMSI: 566999000.

Date/timePositionNaut miles runAvg speedWind from/ knotsBaromVisibWave heightAir tempDewpointWater temp
2018-Jan-12 12:49N 31°22' E 121°35'0 0.0
2018-Jan-12 12:19N 31°22' E 121°35'0 0.0
2018-Jan-12 11:55N 31°22' E 121°35'0 0.0
2018-Jan-12 11:13N 31°22' E 121°35'0 0.0
2018-Jan-12 10:49N 31°22' E 121°35'0 0.0
2018-Jan-12 10:25N 31°22' E 121°35'0 0.0
2018-Jan-12 09:55N 31°22' E 121°35'0 0.0
2018-Jan-12 09:13N 31°22' E 121°35'0 0.0
2018-Jan-12 08:49N 31°22' E 121°35'0 0.0
2018-Jan-12 03:30N 31°22' E 121°35'1 1.6
2018-Jan-12 02:46N 31°23' E 121°34'0 0.7
2018-Jan-12 02:30N 31°24' E 121°34'3 5.2
2018-Jan-12 02:00N 31°22' E 121°37'4 7.8
2018-Jan-12 01:30N 31°21' E 121°41'6 8.5
2018-Jan-12 00:48N 31°18' E 121°47'610.2
2018-Jan-12 00:13N 31°16' E 121°54'210.1
2018-Jan-12 00:00N 31°15' E 121°56'4 9.2
2018-Jan-11 23:30N 31°15' E 122°01'510.4
2018-Jan-11 23:01N 31°13' E 122°07'5 9.6
2018-Jan-11 22:30N 31°10' E 122°12'3 7.2
2018-Jan-11 22:01N 31°08' E 122°15'4 8.6
2018-Jan-11 21:31N 31°06' E 122°19'6 9.8
2018-Jan-11 20:56N 31°06' E 122°26'8 8.1
2018-Jan-11 19:57N 31°07' E 122°35'  
Track history (hours):
 
Tides and Currents Weather Stations Pressure Air Temp Water Temp Dewpoint Dewpoint Depression Visibility Wind Speed Wind Dir Waves Ship Positions

Hyundai New York

Last reported at 2018-Jan-12 12:49 UTC. Time now 2018-Jan-23 00:07 UTC.
Position N 31°22' E 121°35'.
Warning: this ship's position is 10 days out of date.

Length 293 m; draft 8.5 m.

Type: Ship (hazmat cat A). MMSI: 566999000.

Date/timePositionNaut miles runAvg speedWind from/ knotsBaromVisibWave heightAir tempDewpointWater temp
2018-Jan-12 12:49N 31°22' E 121°35'0 0.0
2018-Jan-12 12:19N 31°22' E 121°35'0 0.0
2018-Jan-12 11:55N 31°22' E 121°35'0 0.0
2018-Jan-12 11:13N 31°22' E 121°35'0 0.0
2018-Jan-12 10:49N 31°22' E 121°35'0 0.0
2018-Jan-12 10:25N 31°22' E 121°35'0 0.0
2018-Jan-12 09:55N 31°22' E 121°35'0 0.0
2018-Jan-12 09:13N 31°22' E 121°35'0 0.0
2018-Jan-12 08:49N 31°22' E 121°35'0 0.0
2018-Jan-12 03:30N 31°22' E 121°35'1 1.6
2018-Jan-12 02:46N 31°23' E 121°34'0 0.7
2018-Jan-12 02:30N 31°24' E 121°34'3 5.2
2018-Jan-12 02:00N 31°22' E 121°37'4 7.8
2018-Jan-12 01:30N 31°21' E 121°41'6 8.5
2018-Jan-12 00:48N 31°18' E 121°47'610.2
2018-Jan-12 00:13N 31°16' E 121°54'210.1
2018-Jan-12 00:00N 31°15' E 121°56'4 9.2
2018-Jan-11 23:30N 31°15' E 122°01'510.4
2018-Jan-11 23:01N 31°13' E 122°07'5 9.6
2018-Jan-11 22:30N 31°10' E 122°12'3 7.2
2018-Jan-11 22:01N 31°08' E 122°15'4 8.6
2018-Jan-11 21:31N 31°06' E 122°19'6 9.8
2018-Jan-11 20:56N 31°06' E 122°26'8 8.1
2018-Jan-11 19:57N 31°07' E 122°35'  

Dump ship's entire track history